CheckWX is a tool to help pilots better visualize weather data.  It is not intended as a substitute for an official pre-flight weather briefing.

14:52:07 UTC

KSSI METAR
McKinnon St Simons Island Airport
Brunswick, Georgia, USA
Current

59 mins ago

KSSI 201353Z AUTO 23006KT 10SM CLR 28/21 A3006 RMK AO2 SLP179 T02780211
Observed
May-20 @ 13:53 UTC
Wind
  • 230° at 6 KTS
Visibility
10 SM
Flight Rules
VFR
Cloud Levels
  • Clear skies
Temperature
28°C / 82°F
Dewpoint
21°C / 70°F
Heat Index
30°C / 86°F
Humidity
66%
Altimeter
30.06" Hg
Pressure
1017.92 hPa
Previous

2 hours ago

KSSI 201253Z AUTO 22008KT 10SM CLR 27/21 A3005 RMK AO2 SLP177 T02670211
Observed
May-20 @ 12:53 UTC
Wind
  • 220° at 8 KTS
Visibility
10 SM
Flight Rules
VFR
Cloud Levels
  • Clear skies
Temperature
27°C / 81°F
Dewpoint
21°C / 70°F
Heat Index
29°C / 85°F
Humidity
70%
Altimeter
30.05" Hg
Pressure
1017.62 hPa
Previous

3 hours ago

KSSI 201153Z AUTO 21007KT 10SM CLR 26/22 A3005 RMK AO2 SLP176 T02560217 10256 20239 53006
Observed
May-20 @ 11:53 UTC
Wind
  • 210° at 7 KTS
Visibility
10 SM
Flight Rules
VFR
Cloud Levels
  • Clear skies
Temperature
26°C / 79°F
Dewpoint
22°C / 72°F
Humidity
79%
Altimeter
30.05" Hg
Pressure
1017.62 hPa